Time,TemperatureF,DewpointF,PressureIn,WindDirection,WindDirectionDegrees,WindSpeedMPH,WindSpeedGustMPH,Humidity,HourlyPrecipIn,Conditions,Clouds,dailyrainin,SoftwareType,DateUTC
2013-01-02 00:05:00,12.2,8.8,30.27,West,267,4.0,4.0,86,0.00,,,0.00,Wunderground v.1.15,2013-01-02 06:05:00,
2013-01-02 00:11:00,12.2,8.8,30.27,West,261,3.0,3.0,86,0.00,,,0.00,Wunderground v.1.15,2013-01-02 06:11:00,
2013-01-02 00:17:00,12.2,8.8,30.27,West,266,3.0,4.0,86,0.00,,,0.00,Wunderground v.1.15,2013-01-02 06:17:00,
2013-01-02 00:23:00,12.2,8.8,30.27,West,267,3.0,3.0,86,0.00,,,0.00,Wunderground v.1.15,2013-01-02 06:23:00,
2013-01-02 00:29:00,12.1,8.5,30.27,West,262,3.0,5.0,85,0.00,,,0.00,Wunderground v.1.15,2013-01-02 06:29:00,
2013-01-02 00:35:00,11.9,8.3,30.26,West,260,3.0,4.0,85,0.00,,,0.00,Wunderground v.1.15,2013-01-02 06:35:00,
2013-01-02 00:41:00,11.7,8.3,30.26,West,267,3.0,5.0,86,0.00,,,0.00,Wunderground v.1.15,2013-01-02 06:41:00,
2013-01-02 00:47:00,11.6,8.2,30.26,West,264,4.0,5.0,86,0.00,,,0.00,Wunderground v.1.15,2013-01-02 06:47:00,
2013-01-02 00:53:00,11.6,8.2,30.27,West,262,4.0,7.0,86,0.00,,,0.00,Wunderground v.1.15,2013-01-02 06:53:00,
2013-01-02 00:59:00,11.7,8.3,30.28,West,264,4.0,7.0,86,0.00,,,0.00,Wunderground v.1.15,2013-01-02 06:59:00,
2013-01-02 01:05:00,11.6,8.2,30.28,West,264,4.0,6.0,86,0.00,,,0.00,Wunderground v.1.15,2013-01-02 07:05:00,
2013-01-02 01:11:00,11.7,8.3,30.29,West,261,4.0,4.0,86,0.00,,,0.00,Wunderground v.1.15,2013-01-02 07:11:00,
2013-01-02 01:17:00,11.6,8.2,30.29,WSW,257,3.0,4.0,86,0.00,,,0.00,Wunderground v.1.15,2013-01-02 07:17:00,
2013-01-02 01:23:00,11.5,8.1,30.29,WSW,253,3.0,4.0,86,0.00,,,0.00,Wunderground v.1.15,2013-01-02 07:23:00,
2013-01-02 01:29:00,11.0,7.4,30.30,WSW,252,3.0,4.0,85,0.00,,,0.00,Wunderground v.1.15,2013-01-02 07:29:00,
2013-01-02 01:35:00,10.5,6.9,30.29,WSW,253,3.0,3.0,85,0.00,,,0.00,Wunderground v.1.15,2013-01-02 07:35:00,
2013-01-02 01:41:00,10.3,6.9,30.29,WSW,252,3.0,3.0,86,0.00,,,0.00,Wunderground v.1.15,2013-01-02 07:41:00,
2013-01-02 01:47:00,10.2,6.8,30.29,WSW,252,3.0,4.0,86,0.00,,,0.00,Wunderground v.1.15,2013-01-02 07:47:00,
2013-01-02 01:53:00,10.1,7.0,30.28,WSW,257,3.0,4.0,87,0.00,,,0.00,Wunderground v.1.15,2013-01-02 07:53:00,
2013-01-02 01:58:00,10.3,7.2,30.29,WSW,254,3.0,4.0,87,0.00,,,0.00,Wunderground v.1.15,2013-01-02 07:58:00,
2013-01-02 02:04:00,10.3,7.2,30.29,WSW,252,3.0,3.0,87,0.00,,,0.00,Wunderground v.1.15,2013-01-02 08:04:00,
2013-01-02 02:10:00,10.4,7.3,30.29,WSW,252,3.0,3.0,87,0.00,,,0.00,Wunderground v.1.15,2013-01-02 08:10:00,
2013-01-02 02:16:00,10.6,7.7,30.29,WSW,254,3.0,3.0,88,0.00,,,0.00,Wunderground v.1.15,2013-01-02 08:16:00,
2013-01-02 02:22:00,10.8,7.9,30.29,WSW,252,3.0,4.0,88,0.00,,,0.00,Wunderground v.1.15,2013-01-02 08:22:00,
2013-01-02 02:28:00,10.9,7.8,30.29,WSW,256,3.0,4.0,87,0.00,,,0.00,Wunderground v.1.15,2013-01-02 08:28:00,
2013-01-02 02:34:00,10.9,7.8,30.29,WSW,254,3.0,3.0,87,0.00,,,0.00,Wunderground v.1.15,2013-01-02 08:34:00,
2013-01-02 02:40:00,10.9,7.8,30.29,WSW,254,3.0,3.0,87,0.00,,,0.00,Wunderground v.1.15,2013-01-02 08:40:00,
2013-01-02 02:45:00,11.1,8.2,30.30,WSW,256,3.0,4.0,88,0.00,,,0.00,Wunderground v.1.15,2013-01-02 08:45:00,
2013-01-02 02:51:00,11.3,8.4,30.30,West,261,3.0,3.0,88,0.00,,,0.00,Wunderground v.1.15,2013-01-02 08:51:00,
2013-01-02 02:57:00,11.4,8.5,30.30,West,266,3.0,5.0,88,0.00,,,0.00,Wunderground v.1.15,2013-01-02 08:57:00,
2013-01-02 03:03:00,11.6,8.7,30.29,West,269,3.0,4.0,88,0.00,,,0.00,Wunderground v.1.15,2013-01-02 09:03:00,
2013-01-02 03:09:00,11.7,8.8,30.30,West,261,3.0,4.0,88,0.00,,,0.00,Wunderground v.1.15,2013-01-02 09:09:00,
2013-01-02 03:15:00,11.7,8.6,30.29,West,262,3.0,3.0,87,0.00,,,0.00,Wunderground v.1.15,2013-01-02 09:15:00,
2013-01-02 03:21:00,11.5,8.1,30.29,West,264,2.0,2.0,86,0.00,,,0.00,Wunderground v.1.15,2013-01-02 09:21:00,
2013-01-02 03:27:00,11.3,7.9,30.29,West,263,2.0,2.0,86,0.00,,,0.00,Wunderground v.1.15,2013-01-02 09:27:00,
2013-01-02 03:33:00,11.0,7.9,30.28,West,264,2.0,2.0,87,0.00,,,0.00,Wunderground v.1.15,2013-01-02 09:33:00,
2013-01-02 03:39:00,10.8,7.7,30.28,West,263,2.0,2.0,87,0.00,,,0.00,Wunderground v.1.15,2013-01-02 09:39:00,
2013-01-02 03:45:00,10.7,7.6,30.28,West,260,2.0,2.0,87,0.00,,,0.00,Wunderground v.1.15,2013-01-02 09:45:00,
2013-01-02 03:51:00,10.5,7.4,30.27,West,264,2.0,2.0,87,0.00,,,0.00,Wunderground v.1.15,2013-01-02 09:51:00,
2013-01-02 03:57:00,10.4,7.3,30.26,West,266,1.0,2.0,87,0.00,,,0.00,Wunderground v.1.15,2013-01-02 09:57:00,
2013-01-02 04:03:00,10.3,7.2,30.27,West,267,1.0,2.0,87,0.00,,,0.00,Wunderground v.1.15,2013-01-02 10:03:00,
2013-01-02 04:09:00,10.1,7.0,30.28,West,264,2.0,2.0,87,0.00,,,0.00,Wunderground v.1.15,2013-01-02 10:09:00,
2013-01-02 04:15:00,9.9,6.8,30.28,West,267,2.0,3.0,87,0.00,,,0.00,Wunderground v.1.15,2013-01-02 10:15:00,
2013-01-02 04:21:00,9.7,6.6,30.27,West,262,3.0,3.0,87,0.00,,,0.00,Wunderground v.1.15,2013-01-02 10:21:00,
2013-01-02 04:27:00,9.7,6.9,30.28,West,264,2.0,3.0,88,0.00,,,0.00,Wunderground v.1.15,2013-01-02 10:27:00,
2013-01-02 04:33:00,9.7,6.9,30.28,WSW,258,2.0,3.0,88,0.00,,,0.00,Wunderground v.1.15,2013-01-02 10:33:00,
2013-01-02 04:39:00,9.8,7.0,30.27,WSW,252,2.0,3.0,88,0.00,,,0.00,Wunderground v.1.15,2013-01-02 10:39:00,
2013-01-02 04:45:00,9.8,7.0,30.27,West,260,3.0,3.0,88,0.00,,,0.00,Wunderground v.1.15,2013-01-02 10:45:00,
2013-01-02 04:51:00,9.8,7.0,30.27,WSW,252,3.0,4.0,88,0.00,,,0.00,Wunderground v.1.15,2013-01-02 10:51:00,
2013-01-02 04:56:00,9.9,7.1,30.27,WSW,250,2.0,4.0,88,0.00,,,0.00,Wunderground v.1.15,2013-01-02 10:56:00,
2013-01-02 05:02:00,9.9,7.1,30.27,WSW,251,2.0,3.0,88,0.00,,,0.00,Wunderground v.1.15,2013-01-02 11:02:00,
2013-01-02 05:08:00,9.7,6.9,30.27,WSW,251,2.0,4.0,88,0.00,,,0.00,Wunderground v.1.15,2013-01-02 11:08:00,
2013-01-02 05:14:00,9.6,6.8,30.27,WSW,255,2.0,4.0,88,0.00,,,0.00,Wunderground v.1.15,2013-01-02 11:14:00,
2013-01-02 05:20:00,9.5,6.7,30.27,SW,232,3.0,3.0,88,0.00,,,0.00,Wunderground v.1.15,2013-01-02 11:20:00,
2013-01-02 05:26:00,9.5,6.7,30.27,SW,224,4.0,5.0,88,0.00,,,0.00,Wunderground v.1.15,2013-01-02 11:26:00,
2013-01-02 05:32:00,9.6,6.8,30.27,SW,224,4.0,4.0,88,0.00,,,0.00,Wunderground v.1.15,2013-01-02 11:32:00,
2013-01-02 05:38:00,9.7,7.1,30.27,SW,224,4.0,6.0,89,0.00,,,0.00,Wunderground v.1.15,2013-01-02 11:38:00,
2013-01-02 05:44:00,9.8,7.2,30.27,SW,226,4.0,5.0,89,0.00,,,0.00,Wunderground v.1.15,2013-01-02 11:44:00,
2013-01-02 05:50:00,9.9,7.3,30.27,SW,226,4.0,4.0,89,0.00,,,0.00,Wunderground v.1.15,2013-01-02 11:50:00,
2013-01-02 05:56:00,9.9,7.1,30.27,SW,224,3.0,4.0,88,0.00,,,0.00,Wunderground v.1.15,2013-01-02 11:56:00,
2013-01-02 06:02:00,9.8,7.0,30.28,SW,222,3.0,5.0,88,0.00,,,0.00,Wunderground v.1.15,2013-01-02 12:02:00,
2013-01-02 06:08:00,9.6,6.8,30.29,SW,223,3.0,5.0,88,0.00,,,0.00,Wunderground v.1.15,2013-01-02 12:08:00,
2013-01-02 06:14:00,9.5,6.7,30.28,SW,223,3.0,3.0,88,0.00,,,0.00,Wunderground v.1.15,2013-01-02 12:14:00,
2013-01-02 06:20:00,9.5,6.7,30.28,SW,222,3.0,3.0,88,0.00,,,0.00,Wunderground v.1.15,2013-01-02 12:20:00,
2013-01-02 06:26:00,9.4,6.6,30.28,SW,221,3.0,3.0,88,0.00,,,0.00,Wunderground v.1.15,2013-01-02 12:26:00,
2013-01-02 06:32:00,9.4,6.6,30.29,SW,220,3.0,5.0,88,0.00,,,0.00,Wunderground v.1.15,2013-01-02 12:32:00,
2013-01-02 06:38:00,9.4,6.6,30.28,SW,222,4.0,5.0,88,0.00,,,0.00,Wunderground v.1.15,2013-01-02 12:38:00,
2013-01-02 06:44:00,9.3,6.5,30.29,SW,222,4.0,5.0,88,0.00,,,0.00,Wunderground v.1.15,2013-01-02 12:44:00,
2013-01-02 06:50:00,9.1,6.0,30.30,SW,223,4.0,5.0,87,0.00,,,0.00,Wunderground v.1.15,2013-01-02 12:50:00,
2013-01-02 06:56:00,9.0,6.2,30.31,SW,222,4.0,6.0,88,0.00,,,0.00,Wunderground v.1.15,2013-01-02 12:56:00,
2013-01-02 07:02:00,9.0,6.2,30.30,SW,221,4.0,5.0,88,0.00,,,0.00,Wunderground v.1.15,2013-01-02 13:02:00,
2013-01-02 07:08:00,8.9,6.1,30.29,SW,222,3.0,5.0,88,0.00,,,0.00,Wunderground v.1.15,2013-01-02 13:08:00,
2013-01-02 07:14:00,8.9,6.1,30.29,SW,221,4.0,6.0,88,0.00,,,0.00,Wunderground v.1.15,2013-01-02 13:14:00,
2013-01-02 07:20:00,8.8,6.0,30.30,SW,220,4.0,5.0,88,0.00,,,0.00,Wunderground v.1.15,2013-01-02 13:20:00,
2013-01-02 07:26:00,8.9,6.1,30.30,SSW,212,4.0,5.0,88,0.00,,,0.00,Wunderground v.1.15,2013-01-02 13:26:00,
2013-01-02 07:32:00,9.1,6.3,30.29,SSW,209,4.0,4.0,88,0.00,,,0.00,Wunderground v.1.15,2013-01-02 13:32:00,
2013-01-02 07:37:00,9.3,6.5,30.28,SSW,210,3.0,4.0,88,0.00,,,0.00,Wunderground v.1.15,2013-01-02 13:37:00,
2013-01-02 07:43:00,9.6,7.0,30.29,SSW,210,3.0,4.0,89,0.00,,,0.00,Wunderground v.1.15,2013-01-02 13:43:00,
2013-01-02 07:49:00,9.9,7.3,30.29,SSW,210,3.0,4.0,89,0.00,,,0.00,Wunderground v.1.15,2013-01-02 13:49:00,
2013-01-02 07:55:00,10.1,7.3,30.29,SSW,211,3.0,5.0,88,0.00,,,0.00,Wunderground v.1.15,2013-01-02 13:55:00,
2013-01-02 08:00:00,10.4,7.6,30.29,SSW,206,4.0,7.0,88,0.00,,,0.00,Wunderground v.1.15,2013-01-02 14:00:00,
2013-01-02 08:06:00,10.8,7.9,30.29,SSW,205,4.0,7.0,88,0.00,,,0.00,Wunderground v.1.15,2013-01-02 14:06:00,
2013-01-02 08:12:00,11.1,8.2,30.29,SSW,204,4.0,5.0,88,0.00,,,0.00,Wunderground v.1.15,2013-01-02 14:12:00,
2013-01-02 08:18:00,11.4,8.5,30.29,SSW,196,4.0,7.0,88,0.00,,,0.00,Wunderground v.1.15,2013-01-02 14:18:00,
2013-01-02 08:24:00,11.9,9.0,30.30,South,191,4.0,7.0,88,0.00,,,0.00,Wunderground v.1.15,2013-01-02 14:24:00,
2013-01-02 08:30:00,12.5,9.6,30.29,SSW,200,5.0,5.0,88,0.00,,,0.00,Wunderground v.1.15,2013-01-02 14:30:00,
2013-01-02 08:36:00,12.8,9.7,30.30,SSW,202,6.0,8.0,87,0.00,,,0.00,Wunderground v.1.15,2013-01-02 14:36:00,
2013-01-02 08:42:00,13.0,9.9,30.30,SSW,202,5.0,6.0,87,0.00,,,0.00,Wunderground v.1.15,2013-01-02 14:42:00,
2013-01-02 08:48:00,13.3,9.9,30.30,SSW,200,5.0,9.0,86,0.00,,,0.00,Wunderground v.1.15,2013-01-02 14:48:00,
2013-01-02 08:54:00,13.6,10.2,30.30,SSW,202,5.0,5.0,86,0.00,,,0.00,Wunderground v.1.15,2013-01-02 14:54:00,
2013-01-02 09:00:00,13.9,10.2,30.29,SSW,204,4.0,4.0,85,0.00,,,0.00,Wunderground v.1.15,2013-01-02 15:00:00,
2013-01-02 09:06:00,14.4,11.0,30.29,SSW,198,4.0,7.0,86,0.00,,,0.00,Wunderground v.1.15,2013-01-02 15:06:00,
2013-01-02 09:12:00,15.0,11.3,30.29,South,178,5.0,5.0,85,0.00,,,0.00,Wunderground v.1.15,2013-01-02 15:12:00,
2013-01-02 09:18:00,15.4,11.7,30.29,South,177,4.0,5.0,85,0.00,,,0.00,Wunderground v.1.15,2013-01-02 15:18:00,
2013-01-02 09:24:00,15.9,11.9,30.29,SSW,192,4.0,7.0,84,0.00,,,0.00,Wunderground v.1.15,2013-01-02 15:24:00,
2013-01-02 09:30:00,16.4,12.1,30.29,South,190,4.0,6.0,83,0.00,,,0.00,Wunderground v.1.15,2013-01-02 15:30:00,
2013-01-02 09:36:00,17.0,12.5,30.29,South,189,4.0,6.0,82,0.00,,,0.00,Wunderground v.1.15,2013-01-02 15:36:00,
2013-01-02 09:42:00,17.5,12.1,30.29,South,185,4.0,5.0,79,0.00,,,0.00,Wunderground v.1.15,2013-01-02 15:42:00,
2013-01-02 09:48:00,17.9,12.2,30.29,SSW,194,5.0,7.0,78,0.00,,,0.00,Wunderground v.1.15,2013-01-02 15:48:00,
2013-01-02 09:54:00,18.5,12.8,30.29,South,171,5.0,8.0,78,0.00,,,0.00,Wunderground v.1.15,2013-01-02 15:54:00,
2013-01-02 10:00:00,19.1,13.4,30.29,SSW,192,5.0,5.0,78,0.00,,,0.00,Wunderground v.1.15,2013-01-02 16:00:00,
2013-01-02 10:06:00,19.6,13.6,30.29,SSE,163,5.0,7.0,77,0.00,,,0.00,Wunderground v.1.15,2013-01-02 16:06:00,
2013-01-02 10:12:00,20.1,13.7,30.29,South,177,6.0,8.0,76,0.00,,,0.00,Wunderground v.1.15,2013-01-02 16:12:00,
2013-01-02 10:18:00,20.4,13.4,30.29,South,179,7.0,9.0,74,0.00,,,0.00,Wunderground v.1.15,2013-01-02 16:18:00,
2013-01-02 10:24:00,20.8,13.8,30.29,South,176,6.0,8.0,74,0.00,,,0.00,Wunderground v.1.15,2013-01-02 16:24:00,
2013-01-02 10:30:00,21.5,14.5,30.29,SSW,198,5.0,5.0,74,0.00,,,0.00,Wunderground v.1.15,2013-01-02 16:30:00,
2013-01-02 10:36:00,21.7,13.7,30.29,South,183,6.0,10.0,71,0.00,,,0.00,Wunderground v.1.15,2013-01-02 16:36:00,
2013-01-02 10:42:00,22.0,14.0,30.29,SSW,197,6.0,6.0,71,0.00,,,0.00,Wunderground v.1.15,2013-01-02 16:42:00,
2013-01-02 10:47:00,22.4,13.8,30.28,South,171,6.0,10.0,69,0.00,,,0.00,Wunderground v.1.15,2013-01-02 16:47:00,
2013-01-02 10:53:00,22.8,14.1,30.28,South,183,6.0,6.0,69,0.00,,,0.00,Wunderground v.1.15,2013-01-02 16:53:00,
2013-01-02 10:59:00,23.0,14.0,30.27,South,177,6.0,9.0,68,0.00,,,0.00,Wunderground v.1.15,2013-01-02 16:59:00,
2013-01-02 11:05:00,23.3,14.0,30.28,South,186,7.0,10.0,67,0.00,,,0.00,Wunderground v.1.15,2013-01-02 17:05:00,
2013-01-02 11:11:00,23.7,14.0,30.28,SSW,193,7.0,7.0,66,0.00,,,0.00,Wunderground v.1.15,2013-01-02 17:11:00,
2013-01-02 11:17:00,24.4,14.0,30.27,SSW,198,6.0,8.0,64,0.00,,,0.00,Wunderground v.1.15,2013-01-02 17:17:00,
2013-01-02 11:23:00,24.5,13.7,30.26,SSW,196,6.0,9.0,63,0.00,,,0.00,Wunderground v.1.15,2013-01-02 17:23:00,
2013-01-02 11:29:00,24.5,14.1,30.26,SSW,199,7.0,9.0,64,0.00,,,0.00,Wunderground v.1.15,2013-01-02 17:29:00,
2013-01-02 11:35:00,24.8,15.0,30.25,SSW,199,6.0,9.0,66,0.00,,,0.00,Wunderground v.1.15,2013-01-02 17:35:00,
2013-01-02 11:41:00,25.1,15.7,30.25,SSW,201,7.0,7.0,67,0.00,,,0.00,Wunderground v.1.15,2013-01-02 17:41:00,
2013-01-02 11:47:00,25.7,15.2,30.25,South,190,6.0,11.0,64,0.00,,,0.00,Wunderground v.1.15,2013-01-02 17:47:00,
2013-01-02 11:53:00,26.0,15.8,30.25,SE,146,6.0,6.0,65,0.00,,,0.00,Wunderground v.1.15,2013-01-02 17:53:00,
2013-01-02 11:59:00,26.3,15.4,30.24,South,173,6.0,8.0,63,0.00,,,0.00,Wunderground v.1.15,2013-01-02 17:59:00,
2013-01-02 12:05:00,26.3,15.4,30.24,South,190,6.0,7.0,63,0.00,,,0.00,Wunderground v.1.15,2013-01-02 18:05:00,
2013-01-02 12:11:00,26.6,16.1,30.24,SSE,163,6.0,8.0,64,0.00,,,0.00,Wunderground v.1.15,2013-01-02 18:11:00,
2013-01-02 12:17:00,26.9,16.0,30.24,SSW,195,5.0,11.0,63,0.00,,,0.00,Wunderground v.1.15,2013-01-02 18:17:00,
2013-01-02 12:23:00,26.7,15.4,30.24,South,175,7.0,9.0,62,0.00,,,0.00,Wunderground v.1.15,2013-01-02 18:23:00,
2013-01-02 12:29:00,26.7,15.8,30.24,SSW,192,7.0,10.0,63,0.00,,,0.00,Wunderground v.1.15,2013-01-02 18:29:00,
2013-01-02 12:35:00,27.2,16.3,30.23,South,170,6.0,9.0,63,0.00,,,0.00,Wunderground v.1.15,2013-01-02 18:35:00,
2013-01-02 12:41:00,27.4,15.7,30.23,South,186,7.0,8.0,61,0.00,,,0.00,Wunderground v.1.15,2013-01-02 18:41:00,
2013-01-02 12:47:00,27.4,14.9,30.23,SSW,200,8.0,12.0,59,0.00,,,0.00,Wunderground v.1.15,2013-01-02 18:47:00,
2013-01-02 12:53:00,27.8,15.7,30.23,SSW,206,8.0,13.0,60,0.00,,,0.00,Wunderground v.1.15,2013-01-02 18:53:00,
2013-01-02 12:59:00,28.0,15.5,30.22,SSW,192,8.0,13.0,59,0.00,,,0.00,Wunderground v.1.15,2013-01-02 18:59:00,
2013-01-02 13:05:00,27.9,15.0,30.22,SSW,196,8.0,11.0,58,0.00,,,0.00,Wunderground v.1.15,2013-01-02 19:05:00,
2013-01-02 13:11:00,28.3,16.2,30.22,SSW,196,8.0,10.0,60,0.00,,,0.00,Wunderground v.1.15,2013-01-02 19:11:00,
2013-01-02 13:17:00,28.4,15.9,30.22,South,189,7.0,10.0,59,0.00,,,0.00,Wunderground v.1.15,2013-01-02 19:17:00,
2013-01-02 13:23:00,28.8,16.3,30.22,SSW,202,7.0,10.0,59,0.00,,,0.00,Wunderground v.1.15,2013-01-02 19:23:00,
2013-01-02 13:29:00,28.9,16.0,30.22,South,178,7.0,12.0,58,0.00,,,0.00,Wunderground v.1.15,2013-01-02 19:29:00,
2013-01-02 13:34:00,29.0,15.7,30.22,South,181,9.0,13.0,57,0.00,,,0.00,Wunderground v.1.15,2013-01-02 19:34:00,
2013-01-02 13:40:00,29.0,16.4,30.22,SSW,198,9.0,10.0,59,0.00,,,0.00,Wunderground v.1.15,2013-01-02 19:40:00,
2013-01-02 13:46:00,29.4,17.2,30.22,South,187,7.0,10.0,60,0.00,,,0.00,Wunderground v.1.15,2013-01-02 19:46:00,
2013-01-02 13:52:00,29.9,17.3,30.22,SSE,163,6.0,6.0,59,0.00,,,0.00,Wunderground v.1.15,2013-01-02 19:52:00,
2013-01-02 13:58:00,29.9,17.3,30.22,SSE,159,5.0,7.0,59,0.00,,,0.00,Wunderground v.1.15,2013-01-02 19:58:00,
2013-01-02 14:04:00,29.8,17.6,30.22,SSW,200,6.0,6.0,60,0.00,,,0.00,Wunderground v.1.15,2013-01-02 20:04:00,
2013-01-02 14:10:00,29.6,17.8,30.22,SSW,202,7.0,7.0,61,0.00,,,0.00,Wunderground v.1.15,2013-01-02 20:10:00,
2013-01-02 14:16:00,29.4,18.0,30.22,South,185,7.0,9.0,62,0.00,,,0.00,Wunderground v.1.15,2013-01-02 20:16:00,
2013-01-02 14:22:00,29.7,19.0,30.22,South,188,6.0,7.0,64,0.00,,,0.00,Wunderground v.1.15,2013-01-02 20:22:00,
2013-01-02 14:28:00,29.9,18.8,30.22,South,183,6.0,9.0,63,0.00,,,0.00,Wunderground v.1.15,2013-01-02 20:28:00,
2013-01-02 14:34:00,30.0,18.5,30.22,SSW,202,6.0,11.0,62,0.00,,,0.00,Wunderground v.1.15,2013-01-02 20:34:00,
2013-01-02 14:40:00,29.9,18.5,30.22,SW,221,6.0,6.0,62,0.00,,,0.00,Wunderground v.1.15,2013-01-02 20:40:00,
2013-01-02 14:46:00,29.7,18.3,30.23,SSW,203,6.0,9.0,62,0.00,,,0.00,Wunderground v.1.15,2013-01-02 20:46:00,
2013-01-02 14:51:00,29.2,17.8,30.23,SSW,204,7.0,8.0,62,0.00,,,0.00,Wunderground v.1.15,2013-01-02 20:51:00,
2013-01-02 14:57:00,29.3,18.3,30.23,SSW,201,6.0,8.0,63,0.00,,,0.00,Wunderground v.1.15,2013-01-02 20:57:00,
2013-01-02 15:03:00,29.3,18.6,30.23,South,181,6.0,8.0,64,0.00,,,0.00,Wunderground v.1.15,2013-01-02 21:03:00,
2013-01-02 15:09:00,29.4,19.1,30.22,South,187,7.0,7.0,65,0.00,,,0.00,Wunderground v.1.15,2013-01-02 21:09:00,
2013-01-02 15:15:00,29.3,18.6,30.22,South,190,6.0,8.0,64,0.00,,,0.00,Wunderground v.1.15,2013-01-02 21:15:00,
2013-01-02 15:20:00,29.1,18.8,30.22,South,184,5.0,6.0,65,0.00,,,0.00,Wunderground v.1.15,2013-01-02 21:20:00,
2013-01-02 15:26:00,29.2,19.2,30.22,SSE,163,6.0,7.0,66,0.00,,,0.00,Wunderground v.1.15,2013-01-02 21:26:00,
2013-01-02 15:32:00,29.4,19.1,30.22,SSW,198,6.0,8.0,65,0.00,,,0.00,Wunderground v.1.15,2013-01-02 21:32:00,
2013-01-02 15:38:00,29.4,19.1,30.22,SSW,199,6.0,8.0,65,0.00,,,0.00,Wunderground v.1.15,2013-01-02 21:38:00,
2013-01-02 15:44:00,29.4,19.4,30.22,South,181,4.0,5.0,66,0.00,,,0.00,Wunderground v.1.15,2013-01-02 21:44:00,
2013-01-02 15:50:00,29.2,19.2,30.22,South,182,4.0,6.0,66,0.00,,,0.00,Wunderground v.1.15,2013-01-02 21:50:00,
2013-01-02 15:55:00,28.9,18.6,30.22,SSE,152,5.0,7.0,65,0.00,,,0.00,Wunderground v.1.15,2013-01-02 21:55:00,
2013-01-02 16:00:00,28.8,18.9,30.22,South,173,5.0,9.0,66,0.00,,,0.00,Wunderground v.1.15,2013-01-02 22:00:00,
2013-01-02 16:06:00,28.5,18.6,30.22,SSE,159,5.0,9.0,66,0.00,,,0.00,Wunderground v.1.15,2013-01-02 22:06:00,
2013-01-02 16:12:00,28.0,19.1,30.22,SSE,160,5.0,6.0,69,0.00,,,0.00,Wunderground v.1.15,2013-01-02 22:12:00,
2013-01-02 16:18:00,27.4,19.2,30.22,SSE,159,5.0,8.0,71,0.00,,,0.00,Wunderground v.1.15,2013-01-02 22:18:00,
2013-01-02 16:24:00,26.9,19.1,30.21,SSE,164,5.0,6.0,72,0.00,,,0.00,Wunderground v.1.15,2013-01-02 22:24:00,
2013-01-02 16:29:00,26.6,19.1,30.21,SSE,156,4.0,6.0,73,0.00,,,0.00,Wunderground v.1.15,2013-01-02 22:29:00,
2013-01-02 16:35:00,26.2,18.7,30.21,SSE,167,5.0,8.0,73,0.00,,,0.00,Wunderground v.1.15,2013-01-02 22:35:00,
2013-01-02 16:41:00,25.7,18.6,30.21,SE,141,5.0,6.0,74,0.00,,,0.00,Wunderground v.1.15,2013-01-02 22:41:00,
2013-01-02 16:47:00,25.2,18.4,30.22,SE,132,5.0,7.0,75,0.00,,,0.00,Wunderground v.1.15,2013-01-02 22:47:00,
2013-01-02 16:53:00,24.6,18.1,30.22,SSE,155,6.0,8.0,76,0.00,,,0.00,Wunderground v.1.15,2013-01-02 22:53:00,
2013-01-02 16:59:00,24.2,17.7,30.22,SSE,153,5.0,8.0,76,0.00,,,0.00,Wunderground v.1.15,2013-01-02 22:59:00,
2013-01-02 17:05:00,23.9,17.7,30.22,SE,124,5.0,6.0,77,0.00,,,0.00,Wunderground v.1.15,2013-01-02 23:05:00,
2013-01-02 17:11:00,23.5,17.3,30.22,SE,141,5.0,8.0,77,0.00,,,0.00,Wunderground v.1.15,2013-01-02 23:11:00,
2013-01-02 17:17:00,23.3,17.5,30.22,SSE,150,5.0,9.0,78,0.00,,,0.00,Wunderground v.1.15,2013-01-02 23:17:00,
2013-01-02 17:23:00,23.1,17.3,30.22,SE,146,5.0,7.0,78,0.00,,,0.00,Wunderground v.1.15,2013-01-02 23:23:00,
2013-01-02 17:29:00,22.9,17.1,30.22,SSE,151,6.0,9.0,78,0.00,,,0.00,Wunderground v.1.15,2013-01-02 23:29:00,
2013-01-02 17:35:00,22.7,16.9,30.22,SSE,154,6.0,7.0,78,0.00,,,0.00,Wunderground v.1.15,2013-01-02 23:35:00,
2013-01-02 17:40:00,22.6,16.8,30.22,SE,141,5.0,9.0,78,0.00,,,0.00,Wunderground v.1.15,2013-01-02 23:40:00,
2013-01-02 17:46:00,22.4,16.9,30.22,SSE,165,5.0,10.0,79,0.00,,,0.00,Wunderground v.1.15,2013-01-02 23:46:00,
2013-01-02 17:52:00,22.2,16.4,30.22,SSE,152,6.0,8.0,78,0.00,,,0.00,Wunderground v.1.15,2013-01-02 23:52:00,
2013-01-02 17:58:00,21.9,16.1,30.22,SSE,153,6.0,9.0,78,0.00,,,0.00,Wunderground v.1.15,2013-01-02 23:58:00,
2013-01-02 18:04:00,21.7,15.9,30.22,SSE,162,6.0,8.0,78,0.00,,,0.00,Wunderground v.1.15,2013-01-03 00:04:00,
2013-01-02 18:10:00,21.5,15.7,30.22,SSE,154,6.0,8.0,78,0.00,,,0.00,Wunderground v.1.15,2013-01-03 00:10:00,
2013-01-02 18:16:00,21.4,15.9,30.22,SSE,163,6.0,8.0,79,0.00,,,0.00,Wunderground v.1.15,2013-01-03 00:16:00,
2013-01-02 18:22:00,21.2,15.7,30.22,South,175,6.0,9.0,79,0.00,,,0.00,Wunderground v.1.15,2013-01-03 00:22:00,
2013-01-02 18:28:00,21.1,15.9,30.23,SSE,160,6.0,9.0,80,0.00,,,0.00,Wunderground v.1.15,2013-01-03 00:28:00,
2013-01-02 18:33:00,21.0,15.5,30.23,SSE,155,6.0,6.0,79,0.00,,,0.00,Wunderground v.1.15,2013-01-03 00:33:00,
2013-01-02 18:39:00,20.9,15.4,30.23,SSE,162,6.0,7.0,79,0.00,,,0.00,Wunderground v.1.15,2013-01-03 00:39:00,
2013-01-02 18:45:00,21.0,15.5,30.23,SSE,152,6.0,11.0,79,0.00,,,0.00,Wunderground v.1.15,2013-01-03 00:45:00,
2013-01-02 18:51:00,20.9,15.1,30.23,SSE,163,7.0,7.0,78,0.00,,,0.00,Wunderground v.1.15,2013-01-03 00:51:00,
2013-01-02 18:57:00,21.0,15.2,30.23,SSE,156,7.0,9.0,78,0.00,,,0.00,Wunderground v.1.15,2013-01-03 00:57:00,
2013-01-02 19:03:00,21.0,15.2,30.23,SSE,164,6.0,9.0,78,0.00,,,0.00,Wunderground v.1.15,2013-01-03 01:03:00,
2013-01-02 19:09:00,21.1,15.3,30.23,South,189,7.0,10.0,78,0.00,,,0.00,Wunderground v.1.15,2013-01-03 01:09:00,
2013-01-02 19:15:00,21.1,15.3,30.23,SSE,165,7.0,9.0,78,0.00,,,0.00,Wunderground v.1.15,2013-01-03 01:15:00,
2013-01-02 19:21:00,21.2,15.4,30.23,South,171,7.0,8.0,78,0.00,,,0.00,Wunderground v.1.15,2013-01-03 01:21:00,
2013-01-02 19:27:00,21.2,15.4,30.23,South,169,7.0,8.0,78,0.00,,,0.00,Wunderground v.1.15,2013-01-03 01:27:00,
2013-01-02 19:33:00,21.2,15.4,30.23,SSE,165,7.0,10.0,78,0.00,,,0.00,Wunderground v.1.15,2013-01-03 01:33:00,
2013-01-02 19:39:00,21.2,15.4,30.23,SSE,167,7.0,10.0,78,0.00,,,0.00,Wunderground v.1.15,2013-01-03 01:39:00,
2013-01-02 19:45:00,21.1,15.3,30.23,SE,141,7.0,8.0,78,0.00,,,0.00,Wunderground v.1.15,2013-01-03 01:45:00,
2013-01-02 19:51:00,21.0,15.2,30.23,SSE,164,6.0,8.0,78,0.00,,,0.00,Wunderground v.1.15,2013-01-03 01:51:00,
2013-01-02 19:57:00,20.9,15.1,30.23,South,174,6.0,9.0,78,0.00,,,0.00,Wunderground v.1.15,2013-01-03 01:57:00,
2013-01-02 20:03:00,20.9,15.1,30.23,SSE,165,5.0,8.0,78,0.00,,,0.00,Wunderground v.1.15,2013-01-03 02:03:00,
2013-01-02 20:08:00,20.9,15.1,30.23,South,176,5.0,9.0,78,0.00,,,0.00,Wunderground v.1.15,2013-01-03 02:08:00,
2013-01-02 20:14:00,21.0,15.5,30.22,SSE,164,5.0,7.0,79,0.00,,,0.00,Wunderground v.1.15,2013-01-03 02:14:00,
2013-01-02 20:20:00,21.0,15.2,30.22,South,176,5.0,6.0,78,0.00,,,0.00,Wunderground v.1.15,2013-01-03 02:20:00,
2013-01-02 20:26:00,21.0,15.2,30.22,SSE,163,5.0,6.0,78,0.00,,,0.00,Wunderground v.1.15,2013-01-03 02:26:00,
2013-01-02 20:32:00,21.1,15.3,30.22,SSE,167,5.0,5.0,78,0.00,,,0.00,Wunderground v.1.15,2013-01-03 02:32:00,
2013-01-02 20:38:00,21.1,15.3,30.23,South,179,5.0,7.0,78,0.00,,,0.00,Wunderground v.1.15,2013-01-03 02:38:00,
2013-01-02 20:44:00,21.1,15.0,30.23,SSW,192,5.0,8.0,77,0.00,,,0.00,Wunderground v.1.15,2013-01-03 02:44:00,
2013-01-02 20:50:00,21.2,15.1,30.23,South,174,5.0,5.0,77,0.00,,,0.00,Wunderground v.1.15,2013-01-03 02:50:00,
2013-01-02 20:56:00,21.1,15.0,30.23,SSE,165,5.0,7.0,77,0.00,,,0.00,Wunderground v.1.15,2013-01-03 02:56:00,
2013-01-02 21:02:00,21.1,15.0,30.23,South,178,4.0,5.0,77,0.00,,,0.00,Wunderground v.1.15,2013-01-03 03:02:00,
2013-01-02 21:08:00,21.0,14.9,30.23,South,173,4.0,5.0,77,0.00,,,0.00,Wunderground v.1.15,2013-01-03 03:08:00,
2013-01-02 21:14:00,21.1,15.0,30.23,South,180,4.0,5.0,77,0.00,,,0.00,Wunderground v.1.15,2013-01-03 03:14:00,
2013-01-02 21:20:00,21.1,15.0,30.24,SSE,167,5.0,6.0,77,0.00,,,0.00,Wunderground v.1.15,2013-01-03 03:20:00,
2013-01-02 21:26:00,21.1,14.7,30.24,South,171,5.0,8.0,76,0.00,,,0.00,Wunderground v.1.15,2013-01-03 03:26:00,
2013-01-02 21:31:00,21.2,14.8,30.24,SSW,202,6.0,7.0,76,0.00,,,0.00,Wunderground v.1.15,2013-01-03 03:31:00,
2013-01-02 21:38:00,21.2,14.8,30.24,SSW,194,5.0,9.0,76,0.00,,,0.00,Wunderground v.1.15,2013-01-03 03:38:00,
2013-01-02 21:45:00,21.1,15.0,30.24,SSW,201,4.0,5.0,77,0.00,,,0.00,Wunderground v.1.15,2013-01-03 03:45:00,
2013-01-02 21:51:00,21.0,14.9,30.24,South,184,5.0,5.0,77,0.00,,,0.00,Wunderground v.1.15,2013-01-03 03:51:00,
2013-01-02 21:57:00,21.0,14.9,30.24,South,185,5.0,5.0,77,0.00,,,0.00,Wunderground v.1.15,2013-01-03 03:57:00,
2013-01-02 22:03:00,21.0,14.9,30.25,SSW,203,5.0,7.0,77,0.00,,,0.00,Wunderground v.1.15,2013-01-03 04:03:00,
2013-01-02 22:15:00,20.8,15.0,30.25,SSW,204,5.0,5.0,78,0.00,,,0.00,Wunderground v.1.15,2013-01-03 04:15:00,
2013-01-02 22:20:00,20.7,14.9,30.25,SSW,194,5.0,6.0,78,0.00,,,0.00,Wunderground v.1.15,2013-01-03 04:20:00,
2013-01-02 22:26:00,20.7,14.9,30.25,South,178,5.0,6.0,78,0.00,,,0.00,Wunderground v.1.15,2013-01-03 04:26:00,
2013-01-02 22:35:00,20.7,15.2,30.25,South,188,5.0,6.0,79,0.00,,,0.00,Wunderground v.1.15,2013-01-03 04:35:00,
2013-01-02 22:43:00,20.6,15.1,30.25,South,181,5.0,7.0,79,0.00,,,0.00,Wunderground v.1.15,2013-01-03 04:43:00,
2013-01-02 22:49:00,20.5,15.0,30.25,SSW,196,5.0,6.0,79,0.00,,,0.00,Wunderground v.1.15,2013-01-03 04:49:00,
2013-01-02 22:55:00,20.4,14.9,30.25,SSW,209,5.0,6.0,79,0.00,,,0.00,Wunderground v.1.15,2013-01-03 04:55:00,
2013-01-02 23:00:00,20.3,14.8,30.25,South,177,4.0,6.0,79,0.00,,,0.00,Wunderground v.1.15,2013-01-03 05:00:00,
2013-01-02 23:01:00,20.3,14.8,30.25,SSW,196,4.0,6.0,79,0.00,,,0.00,Wunderground v.1.15,2013-01-03 05:01:00,
2013-01-02 23:03:00,20.3,14.8,30.25,South,188,5.0,8.0,79,0.00,,,0.00,Wunderground v.1.15,2013-01-03 05:03:00,
2013-01-02 23:09:00,20.2,14.7,30.24,South,179,6.0,8.0,79,0.00,,,0.00,Wunderground v.1.15,2013-01-03 05:09:00,
2013-01-02 23:13:00,20.2,14.7,30.24,South,187,6.0,8.0,79,0.00,,,0.00,Wunderground v.1.15,2013-01-03 05:13:00,
2013-01-02 23:19:00,20.1,14.6,30.24,South,191,6.0,8.0,79,0.00,,,0.00,Wunderground v.1.15,2013-01-03 05:19:00,
2013-01-02 23:25:00,20.1,14.6,30.24,SSW,193,6.0,9.0,79,0.00,,,0.00,Wunderground v.1.15,2013-01-03 05:25:00,
2013-01-02 23:30:00,20.1,14.6,30.24,South,186,6.0,7.0,79,0.00,,,0.00,Wunderground v.1.15,2013-01-03 05:30:00,
2013-01-02 23:36:00,20.0,14.5,30.24,SSW,199,6.0,8.0,79,0.00,,,0.00,Wunderground v.1.15,2013-01-03 05:36:00,
2013-01-02 23:41:00,19.9,14.4,30.24,South,189,6.0,6.0,79,0.00,,,0.00,Wunderground v.1.15,2013-01-03 05:41:00,
2013-01-02 23:47:00,19.8,14.6,30.24,SSW,196,6.0,7.0,80,0.00,,,0.00,Wunderground v.1.15,2013-01-03 05:47:00,
2013-01-02 23:52:00,19.7,14.5,30.23,SSW,194,6.0,9.0,80,0.00,,,0.00,Wunderground v.1.15,2013-01-03 05:52:00,
2013-01-02 23:58:00,19.7,14.5,30.23,SSW,196,6.0,9.0,80,0.00,,,0.00,Wunderground v.1.15,2013-01-03 05:58:00,